Time;durP1;ratioP1;P1;durP2;ratioP2;P2;SDS_P1;SDS_P2;PMS_P1;PMS_P2;Temp;Humidity;BMP_temperature;BMP_pressure;BME280_temperature;BME280_humidity;BME280_pressure;Samples;Min_cycle;Max_cycle;Signal;HPM_P1;HPM_P2
2022/10/10 00:00:50;;;;;;;8.83;6.53;;;;;;;13.56;70.10;97758.22;5027781;28;20867;-77
2022/10/10 00:03:18;;;;;;;9.37;6.77;;;;;;;13.49;70.07;97761.16;5026832;28;20585;-77
2022/10/10 00:05:45;;;;;;;9.03;6.87;;;;;;;13.36;70.30;97755.69;5026067;28;20610;-78
2022/10/10 00:08:12;;;;;;;8.07;6.47;;;;;;;13.39;70.47;97770.31;5026653;28;20191;-77
2022/10/10 00:10:39;;;;;;;8.97;6.20;;;;;;;13.28;70.51;97764.75;5027306;28;20622;-76
2022/10/10 00:13:06;;;;;;;7.53;6.70;;;;;;;12.99;72.14;97768.59;5026124;28;20195;-75
2022/10/10 00:15:33;;;;;;;8.80;7.10;;;;;;;12.88;72.32;97774.25;5026843;28;20205;-75
2022/10/10 00:18:00;;;;;;;9.47;6.83;;;;;;;12.86;72.21;97767.44;5027806;28;20191;-77
2022/10/10 00:20:26;;;;;;;7.73;6.93;;;;;;;12.96;72.71;97766.97;5026546;28;20195;-75
2022/10/10 00:22:53;;;;;;;10.07;7.57;;;;;;;12.84;72.56;97777.91;5027498;28;20674;-76
2022/10/10 00:25:20;;;;;;;9.80;6.63;;;;;;;12.69;73.34;97762.97;5026536;28;20234;-77
2022/10/10 00:27:47;;;;;;;11.00;6.93;;;;;;;12.76;72.96;97769.59;5027550;28;20607;-77
2022/10/10 00:30:14;;;;;;;9.67;6.90;;;;;;;12.71;72.83;97768.97;5026902;28;20619;-76
2022/10/10 00:32:41;;;;;;;8.57;6.43;;;;;;;12.69;73.75;97775.97;5026583;28;20189;-75
2022/10/10 00:35:08;;;;;;;9.13;6.93;;;;;;;12.75;73.30;97775.72;5028155;28;20187;-78
2022/10/10 00:37:35;;;;;;;7.70;6.90;;;;;;;12.77;72.77;97779.09;5030340;28;20188;-78
2022/10/10 00:40:03;;;;;;;8.70;6.33;;;;;;;12.60;74.30;97778.94;5030005;28;20595;-78
2022/10/10 00:42:30;;;;;;;10.87;7.37;;;;;;;12.24;75.24;97780.47;5045193;28;20698;-77
2022/10/10 00:45:25;;;;;;;8.87;6.93;;;;;;;12.29;75.88;97788.91;5051113;28;20281;-77
2022/10/10 00:47:57;;;;;;;9.80;7.03;;;;;;;12.52;74.57;97788.81;5050946;28;20191;-78
2022/10/10 00:50:25;;;;;;;8.17;7.17;;;;;;;12.40;74.94;97781.53;5050232;28;20723;-76
2022/10/10 00:52:53;;;;;;;6.90;6.20;;;;;;;12.27;75.30;97776.00;5050938;28;20202;-75
2022/10/10 00:55:20;;;;;;;8.23;6.70;;;;;;;12.40;75.52;97781.53;5050126;28;20192;-78
2022/10/10 00:57:49;;;;;;;7.63;6.93;;;;;;;12.40;75.14;97789.31;5050935;28;20205;-77
2022/10/10 01:00:16;;;;;;;8.80;6.50;;;;;;;12.47;74.97;97792.53;5049985;28;20186;-77
2022/10/10 01:02:43;;;;;;;7.90;6.57;;;;;;;12.46;75.15;97796.88;5050533;28;20760;-76
2022/10/10 01:05:10;;;;;;;10.53;7.03;;;;;;;12.37;74.98;97797.22;5050786;28;20584;-76
2022/10/10 01:07:38;;;;;;;10.50;6.87;;;;;;;12.30;75.27;97808.78;5049704;28;20198;-77
2022/10/10 01:10:10;;;;;;;8.83;6.50;;;;;;;12.21;76.08;97801.34;5050712;28;20214;-78
2022/10/10 01:12:58;;;;;;;10.83;7.07;;;;;;;12.02;76.46;97805.59;5049706;28;20557;-76
2022/10/10 01:15:41;;;;;;;11.23;6.17;;;;;;;11.93;76.97;97801.59;5050639;28;20270;-76
2022/10/10 01:18:20;;;;;;;9.87;6.50;;;;;;;12.02;76.44;97806.44;5050332;28;20188;-76
2022/10/10 01:21:28;;;;;;;9.13;6.77;;;;;;;12.19;75.88;97803.16;5048275;28;20641;-77
2022/10/10 01:24:25;;;;;;;12.70;7.20;;;;;;;11.98;76.30;97802.28;4988679;28;20332;-76
2022/10/10 01:27:27;;;;;;;9.17;6.73;;;;;;;11.87;76.88;97807.03;5049953;28;20217;-75
2022/10/10 01:30:09;;;;;;;9.03;7.37;;;;;;;11.86;77.92;97807.94;5039709;28;20202;-77
2022/10/10 01:32:44;;;;;;;9.30;7.27;;;;;;;12.01;77.07;97816.88;5050173;28;20187;-76
2022/10/10 01:35:53;;;;;;;8.03;6.20;;;;;;;11.98;77.46;97815.25;5049814;28;20187;-75
2022/10/10 01:38:40;;;;;;;11.03;7.20;;;;;;;11.89;77.21;97797.41;5038705;28;20240;-75
2022/10/10 01:41:21;;;;;;;8.20;6.53;;;;;;;11.92;77.18;97793.88;5049949;28;20555;-76
2022/10/10 01:43:56;;;;;;;7.50;6.80;;;;;;;12.11;77.75;97815.63;5048477;28;20217;-76
2022/10/10 01:46:24;;;;;;;8.43;6.63;;;;;;;12.26;77.08;97818.44;5049007;28;20228;-75
2022/10/10 01:48:55;;;;;;;7.47;6.43;;;;;;;12.39;76.47;97816.19;5048587;28;20193;-76
2022/10/10 01:51:48;;;;;;;9.57;6.63;;;;;;;12.42;76.50;97805.69;5047520;28;20264;-77
2022/10/10 01:54:45;;;;;;;8.47;6.33;;;;;;;12.51;76.33;97794.09;5049680;28;20194;-76
2022/10/10 01:57:30;;;;;;;9.00;6.60;;;;;;;12.59;76.26;97802.41;5049307;28;20290;-77
2022/10/10 02:00:10;;;;;;;7.20;6.37;;;;;;;12.65;75.28;97797.78;5048746;28;20214;-74
2022/10/10 02:02:40;;;;;;;8.73;6.30;;;;;;;12.86;75.56;97807.28;5049760;28;20302;-77
2022/10/10 02:05:36;;;;;;;9.67;6.53;;;;;;;13.14;74.15;97806.13;5047755;28;20624;-76
2022/10/10 02:08:27;;;;;;;8.27;6.83;;;;;;;13.18;73.07;97802.47;5041567;28;20706;-75
2022/10/10 02:11:01;;;;;;;7.30;6.10;;;;;;;13.36;72.85;97809.47;5048378;28;20665;-76
2022/10/10 02:13:48;;;;;;;8.70;6.27;;;;;;;13.35;72.27;97810.38;5048894;28;20192;-78
2022/10/10 02:16:23;;;;;;;7.40;5.90;;;;;;;13.52;71.89;97815.66;5046846;28;20669;-77
2022/10/10 02:18:53;;;;;;;9.20;6.40;;;;;;;13.61;70.84;97825.66;5047589;28;20721;-76
2022/10/10 02:21:22;;;;;;;7.70;6.30;;;;;;;13.41;70.96;97820.53;5030775;28;20857;-76
2022/10/10 02:23:53;;;;;;;9.73;6.83;;;;;;;13.57;70.56;97831.94;5064940;28;20198;-76
2022/10/10 02:26:22;;;;;;;9.13;7.90;;;;;;;13.50;71.13;97826.16;5030263;28;20221;-76
2022/10/10 02:28:58;;;;;;;10.57;7.30;;;;;;;13.48;70.29;97827.13;5047676;28;20740;-76
2022/10/10 02:31:34;;;;;;;7.53;6.27;;;;;;;13.37;71.15;97840.63;5047087;28;20190;-75
2022/10/10 02:34:12;;;;;;;9.47;7.10;;;;;;;13.37;70.84;97845.00;5048437;28;20203;-77
2022/10/10 02:36:43;;;;;;;8.87;7.30;;;;;;;13.44;70.38;97844.63;5049253;28;20207;-78
2022/10/10 02:39:12;;;;;;;8.47;6.97;;;;;;;13.44;70.34;97849.00;5048100;28;20581;-75
2022/10/10 02:41:41;;;;;;;8.60;6.87;;;;;;;13.37;70.94;97834.56;5051255;28;20207;-77
2022/10/10 02:44:11;;;;;;;8.67;6.50;;;;;;;13.24;71.40;97829.06;5052191;28;20493;-76
2022/10/10 02:46:40;;;;;;;8.00;6.30;;;;;;;13.15;71.13;97828.63;5048844;28;20695;-76
2022/10/10 02:49:07;;;;;;;9.93;6.50;;;;;;;13.00;71.93;97817.09;5049789;28;20189;-77
2022/10/10 02:51:34;;;;;;;13.07;6.93;;;;;;;13.01;72.54;97860.38;5049743;28;20202;-79
2022/10/10 02:54:01;;;;;;;10.13;7.00;;;;;;;12.68;73.41;97853.97;5048903;28;20188;-78
2022/10/10 02:56:28;;;;;;;9.07;7.43;;;;;;;12.63;74.28;97855.94;5047649;28;20198;-77
2022/10/10 02:58:56;;;;;;;8.97;6.70;;;;;;;12.57;74.83;97849.22;5048359;28;20268;-77
2022/10/10 03:01:23;;;;;;;8.20;6.83;;;;;;;12.48;75.29;97856.53;5046591;28;20836;-77
2022/10/10 03:03:50;;;;;;;8.03;6.97;;;;;;;12.45;76.13;97860.09;5048408;28;20656;-77
2022/10/10 03:06:17;;;;;;;10.53;6.60;;;;;;;12.62;75.61;97862.03;5051319;28;20445;-76
2022/10/10 03:08:45;;;;;;;7.57;6.70;;;;;;;12.70;74.71;97858.22;5054613;28;20222;-78
2022/10/10 03:11:12;;;;;;;11.20;7.57;;;;;;;12.78;74.54;97863.94;5048116;28;20207;-77
2022/10/10 03:13:39;;;;;;;8.63;6.77;;;;;;;12.86;74.93;97874.84;5048398;28;20197;-77
2022/10/10 03:16:06;;;;;;;7.63;6.80;;;;;;;13.01;74.44;97868.19;5048760;28;20659;-76
2022/10/10 03:18:32;;;;;;;8.10;6.13;;;;;;;13.01;74.14;97868.19;5047462;28;20642;-78
2022/10/10 03:20:59;;;;;;;8.33;6.60;;;;;;;12.97;73.76;97864.88;5048229;28;20191;-77
2022/10/10 03:23:26;;;;;;;8.93;6.30;;;;;;;12.85;74.88;97872.34;5048205;28;20193;-79
2022/10/10 03:25:53;;;;;;;9.07;6.43;;;;;;;12.77;75.26;97874.41;5047822;28;20223;-77
2022/10/10 03:28:20;;;;;;;10.30;6.13;;;;;;;12.67;75.61;97866.16;5048054;28;20183;-77
2022/10/10 03:30:48;;;;;;;7.17;6.20;;;;;;;12.72;75.08;97861.59;5047308;28;20190;-78
2022/10/10 03:33:15;;;;;;;9.50;6.53;;;;;;;12.79;74.87;97870.84;5049245;28;20670;-78
2022/10/10 03:35:41;;;;;;;8.87;6.73;;;;;;;12.72;74.75;97860.75;5047516;28;20593;-76
2022/10/10 03:38:11;;;;;;;9.83;6.70;;;;;;;12.75;74.96;97876.22;5048347;28;20189;-77
2022/10/10 03:40:39;;;;;;;7.50;6.70;;;;;;;12.71;75.45;97856.47;5048402;28;20282;-79
2022/10/10 03:43:07;;;;;;;6.73;6.03;;;;;;;12.88;74.35;97870.44;5047853;28;20255;-78
2022/10/10 03:45:34;;;;;;;10.67;6.60;;;;;;;12.90;74.34;97865.19;5047684;28;20203;-76
2022/10/10 03:48:02;;;;;;;9.63;8.47;;;;;;;12.93;74.13;97875.44;5047009;28;20199;-79
2022/10/10 03:50:29;;;;;;;12.47;8.87;;;;;;;12.89;74.24;97868.69;5047924;28;20192;-79
2022/10/10 03:52:56;;;;;;;10.73;7.10;;;;;;;13.05;74.05;97881.03;5045452;28;20191;-78
2022/10/10 03:55:23;;;;;;;8.13;7.00;;;;;;;13.10;73.75;97878.22;5047507;28;20208;-77
2022/10/10 03:57:50;;;;;;;10.77;7.03;;;;;;;13.08;73.38;97883.47;5047240;28;20189;-77
2022/10/10 04:00:17;;;;;;;8.23;6.37;;;;;;;13.15;73.32;97875.44;5047091;28;20189;-78
2022/10/10 04:02:44;;;;;;;9.27;6.73;;;;;;;13.22;73.17;97872.50;5047080;28;20511;-79
2022/10/10 04:05:11;;;;;;;10.70;7.47;;;;;;;13.14;73.30;97872.00;5047268;28;20187;-77
2022/10/10 04:07:40;;;;;;;9.93;7.27;;;;;;;13.16;72.84;97872.78;5048096;28;20223;-78
2022/10/10 04:10:08;;;;;;;10.70;6.90;;;;;;;13.27;72.81;97882.72;5047145;28;20629;-78
2022/10/10 04:12:35;;;;;;;10.00;6.87;;;;;;;13.34;72.44;97881.53;5047373;28;20395;-77
2022/10/10 04:15:02;;;;;;;10.10;7.03;;;;;;;13.39;72.34;97892.59;5046338;28;20212;-78
2022/10/10 04:17:30;;;;;;;10.70;7.93;;;;;;;13.42;72.52;97885.50;5047828;28;20565;-79
2022/10/10 04:19:57;;;;;;;10.37;7.87;;;;;;;13.45;71.92;97874.97;5047639;28;20237;-78
2022/10/10 04:22:23;;;;;;;12.17;7.80;;;;;;;13.49;72.19;97886.94;5046593;28;20201;-78
2022/10/10 04:24:51;;;;;;;10.73;8.43;;;;;;;13.38;72.74;97883.94;5047328;28;20575;-78
2022/10/10 04:27:18;;;;;;;10.10;7.90;;;;;;;13.41;72.20;97883.81;5046504;28;20215;-78
2022/10/10 04:29:45;;;;;;;11.10;7.93;;;;;;;13.14;72.04;97859.00;5047298;28;20201;-78
2022/10/10 04:32:51;;;;;;;16.57;9.47;;;;;;;13.27;72.94;97885.31;5046148;28;20190;-78
2022/10/10 04:36:12;;;;;;;11.37;7.70;;;;;;;13.15;73.85;97889.28;5046302;28;20292;-78
2022/10/10 04:39:33;;;;;;;10.40;8.47;;;;;;;13.07;73.82;97891.34;5039475;28;20195;-76
2022/10/10 04:42:54;;;;;;;11.07;8.30;;;;;;;13.11;73.97;97889.50;5046768;28;20845;-78
2022/10/10 04:46:14;;;;;;;15.33;11.07;;;;;;;13.23;73.46;97892.38;5044866;28;20194;-79
2022/10/10 04:49:35;;;;;;;12.63;9.00;;;;;;;13.44;72.67;97893.22;5045877;28;20206;-78
2022/10/10 04:52:55;;;;;;;20.63;10.73;;;;;;;13.55;71.67;97897.06;5046485;28;20578;-77
2022/10/10 04:56:16;;;;;;;11.37;8.70;;;;;;;13.78;70.55;97898.66;5044794;28;20224;-76
2022/10/10 04:59:37;;;;;;;15.83;10.47;;;;;;;13.87;70.11;97903.44;5060810;28;20194;-79
2022/10/10 05:02:57;;;;;;;14.50;9.87;;;;;;;13.90;69.74;97918.94;5045852;28;20200;-79
2022/10/10 05:06:18;;;;;;;14.33;9.63;;;;;;;13.90;70.22;97913.72;5046511;28;20271;-78
2022/10/10 05:09:38;;;;;;;16.73;11.63;;;;;;;13.61;71.43;97908.97;5047218;28;20238;-77
2022/10/10 05:12:59;;;;;;;16.80;10.57;;;;;;;13.68;71.10;97921.63;5044565;28;20399;-79
2022/10/10 05:16:19;;;;;;;20.10;10.27;;;;;;;13.71;71.37;97938.88;5048249;28;20184;-79
2022/10/10 05:19:40;;;;;;;19.00;9.63;;;;;;;13.86;70.68;97933.00;5046741;28;20220;-78
2022/10/10 05:23:00;;;;;;;21.07;12.30;;;;;;;13.76;72.06;97937.78;5063875;28;20580;-77
2022/10/10 05:26:24;;;;;;;26.93;13.13;;;;;;;13.87;71.34;97934.66;5052070;28;20195;-79
2022/10/10 05:29:45;;;;;;;26.67;13.33;;;;;;;13.76;71.79;97947.34;5049859;28;20197;-79
2022/10/10 05:33:05;;;;;;;25.03;13.47;;;;;;;13.81;71.58;97956.63;5048413;28;20186;-77
2022/10/10 05:36:26;;;;;;;15.80;9.10;;;;;;;13.00;74.25;97950.53;5050098;28;20218;-78
2022/10/10 05:39:47;;;;;;;12.30;9.47;;;;;;;13.15;74.54;97961.28;5050675;28;20197;-79
2022/10/10 05:43:08;;;;;;;17.20;9.20;;;;;;;13.30;74.01;97955.41;5049743;28;20198;-78
2022/10/10 05:46:29;;;;;;;15.00;9.57;;;;;;;13.29;74.19;97957.16;5046979;28;20192;-78
2022/10/10 05:49:49;;;;;;;19.37;10.23;;;;;;;13.78;72.49;97959.38;5049304;28;20590;-79
2022/10/10 05:53:10;;;;;;;19.23;10.90;;;;;;;13.83;72.57;97974.78;5050442;28;20671;-77
2022/10/10 05:56:31;;;;;;;16.97;10.40;;;;;;;14.14;71.58;97969.91;5049154;28;20589;-76
2022/10/10 05:59:51;;;;;;;13.17;9.00;;;;;;;13.99;71.67;97967.16;5048655;28;20636;-79
2022/10/10 06:03:15;;;;;;;16.77;8.80;;;;;;;13.68;72.22;97934.63;5048935;28;20184;-80
2022/10/10 06:06:35;;;;;;;15.67;9.80;;;;;;;13.99;72.07;97970.63;5051617;28;20220;-77
2022/10/10 06:09:56;;;;;;;14.80;9.60;;;;;;;13.98;72.68;97968.91;5047451;28;20263;-80
2022/10/10 06:13:17;;;;;;;14.03;9.13;;;;;;;14.23;71.70;97966.91;5048954;28;20684;-78
2022/10/10 06:16:38;;;;;;;12.70;8.70;;;;;;;14.27;71.87;97973.66;5036194;28;20202;-78
2022/10/10 06:20:01;;;;;;;14.57;10.20;;;;;;;14.37;71.19;97974.97;5033094;28;20265;-79
2022/10/10 06:23:22;;;;;;;16.97;11.80;;;;;;;14.51;71.29;97977.78;5049266;28;20642;-78
2022/10/10 06:26:43;;;;;;;24.03;12.07;;;;;;;14.71;71.21;97976.00;5048629;28;20554;-79
2022/10/10 06:30:05;;;;;;;22.27;11.37;;;;;;;14.87;70.20;97972.59;5047705;28;20226;-74
2022/10/10 06:33:26;;;;;;;17.50;12.27;;;;;;;15.03;69.40;97973.53;5047483;28;20193;-71
2022/10/10 06:36:48;;;;;;;19.27;11.63;;;;;;;15.38;68.78;97980.47;5064464;28;20684;-76
2022/10/10 06:40:08;;;;;;;15.87;8.90;;;;;;;15.50;68.69;97988.66;5047385;28;20634;-77
2022/10/10 06:43:29;;;;;;;15.57;8.60;;;;;;;15.51;68.59;97991.19;5049594;28;20281;-78
2022/10/10 06:46:50;;;;;;;14.67;9.43;;;;;;;15.41;69.41;97988.13;5049905;28;20282;-79
2022/10/10 06:50:10;;;;;;;12.87;8.87;;;;;;;15.70;68.97;97991.97;5048196;28;20201;-71
2022/10/10 06:53:32;;;;;;;12.13;8.40;;;;;;;15.94;68.22;97984.59;5047578;28;20190;-76
2022/10/10 06:56:53;;;;;;;14.47;9.00;;;;;;;16.26;67.32;97981.97;5047568;28;20681;-77
2022/10/10 07:00:16;;;;;;;15.30;8.77;;;;;;;16.51;66.02;97985.91;5028310;28;20209;-73
2022/10/10 07:03:37;;;;;;;13.40;8.47;;;;;;;16.81;64.77;97990.34;5025527;28;20221;-72
2022/10/10 07:06:58;;;;;;;13.53;7.30;;;;;;;17.13;64.08;97991.13;5028370;28;20765;-79
2022/10/10 07:10:19;;;;;;;9.87;7.37;;;;;;;17.37;63.02;97967.97;5028916;28;20256;-77
2022/10/10 07:13:41;;;;;;;11.50;7.90;;;;;;;17.67;61.67;97982.75;5027973;28;20192;-77
2022/10/10 07:17:03;;;;;;;10.73;7.60;;;;;;;18.04;60.77;97996.28;5028282;28;20317;-79
2022/10/10 07:20:25;;;;;;;14.00;7.87;;;;;;;17.87;59.88;97982.41;5028901;28;20223;-78
2022/10/10 07:23:45;;;;;;;15.13;7.63;;;;;;;18.16;59.40;97985.03;5026603;28;20199;-80
2022/10/10 07:27:06;;;;;;;14.40;8.00;;;;;;;18.05;59.26;97990.97;5026415;28;20215;-79
2022/10/10 07:30:27;;;;;;;9.43;7.07;;;;;;;18.11;58.37;97977.47;5026008;28;20252;-78
2022/10/10 07:33:52;;;;;;;12.13;7.03;;;;;;;18.41;57.82;97985.22;5028563;28;20188;-81
2022/10/10 07:37:13;;;;;;;16.07;8.17;;;;;;;18.10;58.02;97988.88;5033211;28;20281;-78
2022/10/10 07:40:34;;;;;;;13.00;8.57;;;;;;;18.29;57.33;97985.97;5046140;28;20201;-80
2022/10/10 07:43:55;;;;;;;12.50;7.10;;;;;;;18.22;57.76;97979.41;5028911;28;20191;-79
2022/10/10 07:47:17;;;;;;;12.03;7.33;;;;;;;17.96;58.33;97983.63;5043518;28;20230;-79
2022/10/10 07:50:38;;;;;;;13.47;8.73;;;;;;;18.12;57.76;97978.28;5028425;28;20192;-80
2022/10/10 07:53:59;;;;;;;16.60;8.70;;;;;;;18.52;56.69;97967.94;5057013;28;20249;-80
2022/10/10 07:57:20;;;;;;;10.87;7.40;;;;;;;18.76;56.24;97980.41;5044497;28;20291;-80
2022/10/10 08:00:41;;;;;;;16.90;9.90;;;;;;;18.96;55.46;97978.19;5046111;28;20215;-80
2022/10/10 08:04:01;;;;;;;16.30;7.47;;;;;;;18.93;55.82;97982.81;5047147;28;20351;-79
2022/10/10 08:07:22;;;;;;;9.77;6.73;;;;;;;18.59;56.81;97979.69;5047035;28;20310;-80
2022/10/10 08:10:43;;;;;;;14.37;7.50;;;;;;;18.88;56.02;97977.84;5047551;28;20809;-81
2022/10/10 08:14:04;;;;;;;14.67;6.90;;;;;;;18.81;56.19;97984.47;5043850;28;20200;-80
2022/10/10 08:17:30;;;;;;;11.40;6.67;;;;;;;18.56;57.10;97989.56;5031460;28;20213;-82
2022/10/10 08:20:53;;;;;;;14.40;8.33;;;;;;;18.69;56.73;97993.09;5025981;28;20291;-82
2022/10/10 08:24:15;;;;;;;10.57;7.90;;;;;;;18.71;56.01;97999.09;5024287;28;20228;-84
2022/10/10 08:27:36;;;;;;;17.63;7.47;;;;;;;18.86;56.24;97997.25;5025138;28;20217;-77
2022/10/10 08:30:57;;;;;;;11.60;7.50;;;;;;;18.88;55.97;97998.00;5025489;28;20201;-78
2022/10/10 08:34:17;;;;;;;11.97;8.20;;;;;;;19.14;55.17;97994.56;5026723;28;20196;-78
2022/10/10 08:37:38;;;;;;;11.87;7.00;;;;;;;19.16;54.50;97988.28;5026538;28;20400;-77
2022/10/10 08:41:01;;;;;;;9.60;7.53;;;;;;;19.24;55.04;97998.28;5025086;28;20269;-77
2022/10/10 08:44:11;;;;;;;8.37;6.50;;;;;;;19.27;54.26;97984.94;5024856;28;20190;-76
2022/10/10 08:47:34;;;;;;;10.37;6.17;;;;;;;19.22;53.51;97995.75;5026280;28;20259;-77
2022/10/10 08:50:53;;;;;;;9.50;6.57;;;;;;;19.14;54.31;97992.78;5026609;28;20190;-78
2022/10/10 08:54:21;;;;;;;8.87;7.00;;;;;;;19.46;53.29;98002.06;5024900;28;20202;-76
2022/10/10 08:57:22;;;;;;;6.93;5.87;;;;;;;19.53;52.46;97978.84;5024902;28;20246;-75
2022/10/10 09:00:43;;;;;;;10.13;6.63;;;;;;;19.23;54.00;97994.81;5029564;28;20228;-74
2022/10/10 09:04:12;;;;;;;10.80;7.20;;;;;;;19.05;53.33;97980.25;5030481;28;20563;-74
2022/10/10 09:06:53;;;;;;;9.80;6.23;;;;;;;19.22;52.88;98003.66;5030198;28;20230;-76
2022/10/10 09:10:09;;;;;;;7.77;6.37;;;;;;;19.30;53.60;98001.34;5028739;28;20319;-74
2022/10/10 09:13:33;;;;;;;9.67;7.23;;;;;;;19.14;53.64;97995.41;5029809;28;20190;-74
2022/10/10 09:16:34;;;;;;;11.37;6.70;;;;;;;19.33;53.56;98002.94;5029689;28;20221;-72
2022/10/10 09:19:14;;;;;;;11.23;6.67;;;;;;;19.40;53.70;97994.59;5028667;28;20234;-74
2022/10/10 09:22:35;;;;;;;9.43;6.73;;;;;;;19.38;53.44;97995.63;5044162;28;20199;-74
2022/10/10 09:25:58;;;;;;;9.23;7.87;;;;;;;19.39;54.01;97999.94;5029698;28;20647;-75
2022/10/10 09:29:23;;;;;;;10.87;7.23;;;;;;;19.46;53.58;97994.19;5029820;28;20275;-78
2022/10/10 09:32:53;;;;;;;10.63;6.47;;;;;;;19.39;53.70;98000.78;5043318;28;20271;-78
2022/10/10 09:36:14;;;;;;;13.73;6.40;;;;;;;19.73;52.98;97990.66;5028774;28;20284;-78
2022/10/10 09:39:35;;;;;;;10.40;7.93;;;;;;;19.65;52.38;97991.16;5030736;28;20618;-78
2022/10/10 09:42:57;;;;;;;9.07;7.03;;;;;;;19.34;54.59;97991.50;5048238;28;20197;-78
2022/10/10 09:46:17;;;;;;;11.23;7.70;;;;;;;19.55;54.82;97984.84;5048649;28;20189;-80
2022/10/10 09:49:38;;;;;;;16.07;7.87;;;;;;;19.87;53.14;97987.94;5047175;28;20202;-77
2022/10/10 09:52:58;;;;;;;15.27;6.87;;;;;;;19.96;53.18;97974.16;5049823;28;20750;-78
2022/10/10 09:56:19;;;;;;;15.23;8.30;;;;;;;20.01;53.06;97979.97;5049562;28;20243;-78
2022/10/10 09:59:34;;;;;;;9.70;7.30;;;;;;;19.54;54.16;97983.16;5049216;28;20669;-78
2022/10/10 10:02:26;;;;;;;13.37;7.43;;;;;;;19.25;54.80;97974.53;5043749;28;20197;-78
2022/10/10 10:04:54;;;;;;;12.43;7.37;;;;;;;19.21;55.02;97972.19;5046460;28;20680;-79
2022/10/10 10:07:31;;;;;;;12.63;7.37;;;;;;;19.13;54.49;97972.72;5049767;28;20227;-79
2022/10/10 10:10:01;;;;;;;22.33;9.80;;;;;;;19.21;55.17;97949.41;5048048;28;20606;-78
2022/10/10 10:12:42;;;;;;;11.93;8.37;;;;;;;19.63;54.02;97950.16;5049523;28;20239;-78
2022/10/10 10:15:19;;;;;;;15.37;7.80;;;;;;;19.98;53.26;97953.88;5047722;28;20181;-78
2022/10/10 10:18:06;;;;;;;10.57;7.10;;;;;;;20.18;52.90;97959.44;5049026;28;20208;-78
2022/10/10 10:20:37;;;;;;;21.93;7.90;;;;;;;20.37;51.66;97943.22;5046735;28;20258;-78
2022/10/10 10:23:23;;;;;;;12.40;8.20;;;;;;;19.61;52.50;97834.63;5048101;28;20185;-77
2022/10/10 10:26:39;;;;;;;12.97;7.43;;;;;;;20.31;51.89;97941.03;5047396;28;20208;-80
2022/10/10 10:29:26;;;;;;;12.07;7.70;;;;;;;20.24;52.33;97953.78;5048426;28;20196;-80
2022/10/10 10:31:59;;;;;;;14.80;7.17;;;;;;;20.19;52.12;97952.38;5046425;28;20194;-79
2022/10/10 10:34:30;;;;;;;10.13;6.73;;;;;;;20.14;52.39;97946.59;5049174;28;20209;-78
2022/10/10 10:37:06;;;;;;;10.03;7.27;;;;;;;20.05;52.38;97955.94;5047547;28;20200;-79
2022/10/10 10:39:56;;;;;;;9.47;7.30;;;;;;;20.35;51.55;97941.66;5048480;28;20704;-78
2022/10/10 10:42:51;;;;;;;10.63;7.20;;;;;;;20.10;51.80;97940.72;5048657;28;20192;-80
2022/10/10 10:45:50;;;;;;;10.87;6.40;;;;;;;20.07;52.21;97940.09;5047410;28;20621;-79
2022/10/10 10:48:23;;;;;;;10.00;6.90;;;;;;;20.23;51.74;97932.84;5014163;28;20336;-78
2022/10/10 10:51:12;;;;;;;8.73;7.13;;;;;;;20.43;50.58;97934.06;5047215;28;20198;-77
2022/10/10 10:53:44;;;;;;;11.17;7.53;;;;;;;20.61;50.62;97928.31;5046647;28;20204;-78
2022/10/10 10:56:20;;;;;;;12.07;6.83;;;;;;;20.52;50.45;97922.88;5048111;28;20292;-78
2022/10/10 10:58:49;;;;;;;11.77;6.30;;;;;;;20.27;50.72;97924.63;5047246;28;20238;-78
2022/10/10 11:01:39;;;;;;;8.60;6.30;;;;;;;19.96;51.58;97929.47;5048328;28;20181;-79
2022/10/10 11:05:01;;;;;;;11.03;7.30;;;;;;;20.21;51.48;97922.44;5046934;28;20229;-76
2022/10/10 11:08:15;;;;;;;124.27;42.80;;;;;;;20.56;50.25;97909.41;5046012;28;20266;-75
2022/10/10 11:10:57;;;;;;;12.37;6.80;;;;;;;20.56;50.25;97913.81;5045327;28;20286;-83
2022/10/10 11:13:33;;;;;;;10.23;6.43;;;;;;;20.56;50.09;97917.28;5048087;28;20214;-77
2022/10/10 11:16:16;;;;;;;10.63;6.53;;;;;;;20.46;50.34;97905.75;5045971;28;20296;-77
2022/10/10 11:19:10;;;;;;;10.93;6.77;;;;;;;20.55;49.77;97910.34;5045702;28;20247;-77
2022/10/10 11:21:45;;;;;;;10.67;6.73;;;;;;;20.45;49.79;97901.41;5045552;28;20555;-78
2022/10/10 11:24:24;;;;;;;9.03;6.23;;;;;;;20.11;50.64;97883.69;5046099;28;20181;-77
2022/10/10 11:26:55;;;;;;;13.40;6.53;;;;;;;20.47;50.18;97894.25;5047314;28;20703;-79
2022/10/10 11:29:58;;;;;;;7.67;6.47;;;;;;;20.57;49.07;97895.28;5044378;28;20189;-78
2022/10/10 11:32:36;;;;;;;9.87;6.60;;;;;;;20.70;49.04;97887.34;5045780;28;20190;-78
2022/10/10 11:35:17;;;;;;;11.97;7.07;;;;;;;20.68;49.06;97903.25;5056613;28;20186;-79
2022/10/10 11:38:23;;;;;;;10.87;6.50;;;;;;;20.53;49.78;97896.44;5031996;28;20635;-78
2022/10/10 11:41:24;;;;;;;9.27;6.17;;;;;;;20.38;49.92;97894.91;5013208;28;20645;-77
2022/10/10 11:44:51;;;;;;;7.67;6.10;;;;;;;20.39;50.54;97893.13;5029304;28;20200;-76
2022/10/10 11:48:03;;;;;;;11.57;7.80;;;;;;;20.86;49.82;97894.00;5027658;28;20260;-80
2022/10/10 11:50:36;;;;;;;11.17;7.37;;;;;;;20.96;49.11;97887.09;5024421;28;20183;-77
2022/10/10 11:53:27;;;;;;;10.00;6.57;;;;;;;20.94;49.50;97889.00;5025653;28;20187;-77
2022/10/10 11:56:00;;;;;;;11.17;6.40;;;;;;;20.91;49.39;97889.25;5025721;28;20212;-77
2022/10/10 11:58:39;;;;;;;8.40;6.40;;;;;;;20.79;49.30;97890.13;5024687;28;20709;-76
2022/10/10 12:01:26;;;;;;;10.57;6.67;;;;;;;20.61;49.95;97883.56;5026402;28;20265;-77
2022/10/10 12:03:53;;;;;;;7.20;6.00;;;;;;;20.79;49.58;97871.69;5025358;28;20199;-77
2022/10/10 12:06:51;;;;;;;9.13;6.30;;;;;;;20.81;49.71;97879.50;5026230;28;20210;-76
2022/10/10 12:09:30;;;;;;;8.40;6.67;;;;;;;20.96;49.42;97855.50;4980286;28;1210863;-76
2022/10/10 12:12:07;;;;;;;8.90;6.73;;;;;;;21.04;48.89;97871.59;5037885;28;20245;-77
2022/10/10 12:14:38;;;;;;;9.23;5.97;;;;;;;20.83;48.65;97875.81;5045376;28;20193;-76
2022/10/10 12:17:18;;;;;;;13.50;6.37;;;;;;;20.57;49.23;97879.47;5044683;28;20353;-74
2022/10/10 12:19:47;;;;;;;12.07;6.10;;;;;;;20.92;48.35;97875.09;5045395;28;20206;-76
2022/10/10 12:22:32;;;;;;;9.73;6.40;;;;;;;21.03;48.21;97862.03;5040231;28;20198;-80
2022/10/10 12:25:24;;;;;;;8.63;6.30;;;;;;;21.26;47.91;97877.91;5026130;28;20194;-79
2022/10/10 12:28:23;;;;;;;8.47;6.63;;;;;;;21.45;47.23;97878.19;5032867;28;20648;-79
2022/10/10 12:30:55;;;;;;;11.73;6.60;;;;;;;21.40;47.38;97881.19;4983905;28;20569;-79
2022/10/10 12:33:24;;;;;;;10.00;6.50;;;;;;;21.41;47.26;97874.94;5045248;28;20248;-78
2022/10/10 12:35:52;;;;;;;9.13;6.60;;;;;;;21.42;47.29;97854.69;5046692;28;20202;-78
2022/10/10 12:38:27;;;;;;;8.73;5.70;;;;;;;20.74;47.91;97851.94;5060825;28;20274;-78
2022/10/10 12:40:56;;;;;;;12.23;7.50;;;;;;;21.04;47.61;97866.31;5046503;28;20182;-78
2022/10/10 12:43:36;;;;;;;11.03;7.63;;;;;;;21.12;47.50;97864.94;5027452;28;20194;-77
2022/10/10 12:46:20;;;;;;;9.00;6.10;;;;;;;21.25;46.94;97868.31;5046302;28;20189;-80
2022/10/10 12:49:12;;;;;;;10.33;6.57;;;;;;;20.91;47.80;97862.91;5046476;28;20221;-77
2022/10/10 12:51:41;;;;;;;10.87;5.67;;;;;;;20.96;47.78;97858.13;5045545;28;20189;-78
2022/10/10 12:54:23;;;;;;;8.00;6.27;;;;;;;20.94;47.90;97854.78;5046408;28;20301;-78
2022/10/10 12:57:00;;;;;;;10.40;7.00;;;;;;;21.03;47.88;97859.41;5043789;28;20186;-79
2022/10/10 12:59:27;;;;;;;7.70;6.87;;;;;;;20.96;47.47;97852.84;5045397;28;20186;-78
2022/10/10 13:01:59;;;;;;;10.17;6.53;;;;;;;20.92;48.08;97869.00;5046517;28;20638;-77
2022/10/10 13:04:27;;;;;;;12.57;6.87;;;;;;;21.05;47.99;97857.50;5044945;28;20194;-77
2022/10/10 13:07:00;;;;;;;11.53;7.17;;;;;;;20.57;48.85;97853.16;5046082;28;20276;-78
2022/10/10 13:09:31;;;;;;;12.17;7.27;;;;;;;20.53;48.79;97851.69;5044802;28;20606;-78
2022/10/10 13:12:06;;;;;;;12.00;7.13;;;;;;;20.73;48.72;97858.97;5045783;28;20205;-78
2022/10/10 13:14:42;;;;;;;13.70;6.87;;;;;;;20.67;48.42;97842.81;5044466;28;20625;-78
2022/10/10 13:17:35;;;;;;;9.90;6.33;;;;;;;20.52;49.08;97855.31;5045319;28;20198;-78
2022/10/10 13:20:04;;;;;;;10.97;6.77;;;;;;;20.46;48.72;97850.47;5045054;28;20273;-76